createdAt,value
2018-12-22T00:00:46.849Z,12.77
2018-12-22T00:03:21.493Z,15.57
2018-12-22T00:05:56.682Z,12.30
2018-12-22T00:08:31.608Z,14.47
2018-12-22T00:11:06.659Z,11.60
2018-12-22T00:13:40.425Z,11.23
2018-12-22T00:16:15.460Z,15.20
2018-12-22T00:18:50.440Z,12.03
2018-12-22T00:21:25.286Z,13.93
2018-12-22T00:24:00.062Z,18.67
2018-12-22T00:26:34.941Z,15.10
2018-12-22T00:29:09.661Z,18.60
2018-12-22T00:31:44.459Z,13.90
2018-12-22T00:34:19.227Z,9.63
2018-12-22T00:36:54.185Z,17.90
2018-12-22T00:39:28.935Z,16.67
2018-12-22T00:42:05.790Z,13.30
2018-12-22T00:44:39.814Z,16.23
2018-12-22T00:47:14.585Z,11.30
2018-12-22T00:49:48.667Z,16.23
2018-12-22T00:52:27.921Z,12.37
2018-12-22T00:55:03.250Z,16.03
2018-12-22T00:57:36.299Z,15.30
2018-12-22T01:00:10.457Z,12.07
2018-12-22T01:02:45.373Z,15.60
2018-12-22T01:05:20.509Z,12.90
2018-12-22T01:07:53.582Z,14.77
2018-12-22T01:10:27.224Z,10.47
2018-12-22T01:13:04.078Z,11.60
2018-12-22T01:15:39.041Z,16.57
2018-12-22T01:18:16.121Z,14.10
2018-12-22T01:26:32.003Z,11.40
2018-12-22T01:29:09.530Z,11.63
2018-12-22T01:31:48.833Z,12.43
2018-12-22T01:34:23.067Z,13.60
2018-12-22T01:36:57.903Z,11.63
2018-12-22T01:39:32.073Z,13.60
2018-12-22T01:42:07.024Z,16.77
2018-12-22T01:44:42.091Z,10.70
2018-12-22T01:47:17.065Z,12.63
2018-12-22T01:49:52.008Z,14.90
2018-12-22T01:52:29.573Z,10.50
2018-12-22T01:55:04.773Z,9.30
2018-12-22T01:57:39.422Z,9.83
2018-12-22T02:00:14.322Z,12.80
2018-12-22T02:02:49.257Z,11.33
2018-12-22T02:05:24.133Z,14.80
2018-12-22T02:08:01.470Z,12.47
2018-12-22T02:10:34.882Z,8.90
2018-12-22T02:13:09.742Z,11.17
2018-12-22T02:15:44.604Z,15.20
2018-12-22T02:18:21.874Z,13.17
2018-12-22T02:20:56.618Z,9.97
2018-12-22T02:23:30.594Z,10.10
2018-12-22T02:26:09.998Z,8.57
2018-12-22T02:28:43.409Z,12.03
2018-12-22T02:31:18.407Z,9.77
2018-12-22T02:33:57.773Z,12.93
2018-12-22T02:36:32.306Z,14.40
2018-12-22T02:39:07.145Z,13.00
2018-12-22T02:41:42.282Z,14.33
2018-12-22T02:44:21.795Z,15.13
2018-12-22T02:46:56.281Z,13.73
2018-12-22T02:49:31.173Z,14.17
2018-12-22T02:52:08.095Z,11.20
2018-12-22T02:54:43.295Z,9.67
2018-12-22T02:57:20.176Z,12.93
2018-12-22T02:59:55.448Z,12.03
2018-12-22T03:02:30.331Z,9.67
2018-12-22T03:05:05.302Z,11.57
2018-12-22T03:07:42.225Z,9.17
2018-12-22T03:10:17.234Z,12.87
2018-12-22T03:12:48.769Z,12.00
2018-12-22T03:15:22.906Z,10.50
2018-12-22T03:17:57.767Z,8.90
2018-12-22T03:20:32.564Z,7.80
2018-12-22T03:23:07.368Z,10.83
2018-12-22T03:25:42.442Z,8.37
2018-12-22T03:28:19.277Z,15.03
2018-12-22T03:30:54.373Z,11.50
2018-12-22T03:33:31.288Z,7.77
2018-12-22T03:36:06.939Z,12.17
2018-12-22T03:38:41.873Z,8.90
2018-12-22T03:41:15.667Z,11.93
2018-12-22T03:43:50.716Z,7.57
2018-12-22T03:46:25.256Z,11.07
2018-12-22T03:49:00.856Z,10.13
2018-12-22T03:51:35.553Z,16.13
2018-12-22T03:54:14.938Z,8.17
2018-12-22T03:56:49.343Z,6.57
2018-12-22T03:59:25.015Z,7.67
2018-12-22T04:01:59.350Z,7.17
2018-12-22T04:04:34.172Z,9.43
2018-12-22T04:07:08.869Z,7.73
2018-12-22T04:09:42.919Z,7.40
2018-12-22T04:12:17.907Z,8.60
2018-12-22T04:14:52.752Z,8.50
2018-12-22T04:17:27.369Z,14.87
2018-12-22T04:20:02.856Z,10.73
2018-12-22T04:22:38.434Z,14.00
2018-12-22T04:25:13.806Z,13.63
2018-12-22T04:27:47.815Z,8.57
2018-12-22T04:30:24.850Z,12.63
2018-12-22T04:32:59.690Z,11.27
2018-12-22T04:35:34.782Z,14.77
2018-12-22T04:38:09.639Z,18.13
2018-12-22T04:40:44.478Z,13.33
2018-12-22T04:43:23.733Z,13.73
2018-12-22T04:45:58.342Z,10.50
2018-12-22T04:48:35.433Z,13.67
2018-12-22T04:51:10.140Z,9.73
2018-12-22T04:53:45.122Z,8.57
2018-12-22T04:56:15.886Z,14.60
2018-12-22T04:58:47.205Z,11.33
2018-12-22T05:01:22.695Z,14.90
2018-12-22T05:03:56.798Z,8.47
2018-12-22T05:06:31.882Z,13.57
2018-12-22T05:09:06.588Z,12.07
2018-12-22T05:11:41.208Z,7.13
2018-12-22T05:14:16.005Z,9.23
2018-12-22T05:16:50.874Z,9.90
2018-12-22T05:19:22.173Z,11.40
2018-12-22T05:21:56.280Z,11.33
2018-12-22T05:24:31.122Z,17.17
2018-12-22T05:27:04.775Z,16.43
2018-12-22T05:29:41.550Z,6.53
2018-12-22T05:32:16.599Z,14.47
2018-12-22T05:34:51.584Z,10.30
2018-12-22T05:37:26.534Z,10.87
2018-12-22T05:39:57.955Z,8.87
2018-12-22T05:42:33.051Z,13.37
2018-12-22T05:45:07.887Z,11.70
2018-12-22T05:47:42.586Z,13.93
2018-12-22T05:50:17.582Z,6.77
2018-12-22T05:52:52.658Z,9.37
2018-12-22T05:55:27.653Z,8.57
2018-12-22T05:58:02.779Z,7.80
2018-12-22T06:00:37.595Z,14.57
2018-12-22T06:03:12.437Z,12.07
2018-12-22T06:05:47.447Z,11.37
2018-12-22T06:08:22.445Z,14.63
2018-12-22T06:10:57.336Z,11.50
2018-12-22T06:13:32.138Z,8.60
2018-12-22T06:16:06.073Z,7.40
2018-12-22T06:18:40.919Z,8.43
2018-12-22T06:21:15.925Z,9.13
2018-12-22T06:23:50.754Z,8.13
2018-12-22T06:26:27.551Z,7.87
2018-12-22T06:29:02.631Z,10.43
2018-12-22T06:31:37.541Z,13.73
2018-12-22T06:34:12.703Z,11.83
2018-12-22T06:36:47.521Z,13.47
2018-12-22T06:39:23.288Z,6.40
2018-12-22T06:41:57.177Z,9.40
2018-12-22T06:44:30.810Z,10.93
2018-12-22T06:47:05.571Z,12.50
2018-12-22T06:49:42.546Z,9.80
2018-12-22T06:52:17.365Z,12.70
2018-12-22T06:54:52.417Z,6.67
2018-12-22T06:57:28.100Z,8.13
2018-12-22T07:00:03.357Z,7.07
2018-12-22T07:02:37.102Z,8.33
2018-12-22T07:05:12.123Z,8.07
2018-12-22T07:07:46.507Z,8.27
2018-12-22T07:10:22.083Z,9.93
2018-12-22T07:12:57.018Z,5.70
2018-12-22T07:15:31.845Z,8.43
2018-12-22T07:18:06.995Z,6.20
2018-12-22T07:20:41.665Z,4.77
2018-12-22T07:23:12.427Z,5.43
2018-12-22T07:25:45.686Z,4.30
2018-12-22T07:28:20.794Z,8.33
2018-12-22T07:30:57.959Z,4.07
2018-12-22T07:33:32.594Z,3.27
2018-12-22T07:36:10.106Z,4.00
2018-12-22T07:38:45.301Z,4.83
2018-12-22T07:41:18.324Z,4.27
2018-12-22T07:43:53.586Z,2.90
2018-12-22T07:46:28.353Z,3.63
2018-12-22T07:49:03.326Z,5.77
2018-12-22T07:51:37.261Z,3.87
2018-12-22T07:54:08.662Z,2.53
2018-12-22T07:56:44.058Z,5.70
2018-12-22T07:59:19.042Z,5.60
2018-12-22T08:01:53.957Z,4.43
2018-12-22T08:04:33.528Z,4.63
2018-12-22T08:07:07.948Z,2.73
2018-12-22T08:09:42.719Z,2.97
2018-12-22T08:12:19.720Z,4.97
2018-12-22T08:14:56.531Z,5.07
2018-12-22T08:17:30.340Z,4.77
2018-12-22T08:20:05.411Z,2.77
2018-12-22T08:22:39.064Z,4.97
2018-12-22T08:25:13.885Z,2.00
2018-12-22T08:27:48.800Z,1.80
2018-12-22T08:30:25.597Z,3.63
2018-12-22T08:32:59.398Z,3.93
2018-12-22T08:35:33.086Z,5.00
2018-12-22T08:38:10.011Z,4.10
2018-12-22T08:40:44.642Z,2.33
2018-12-22T08:43:19.668Z,1.80
2018-12-22T08:45:52.817Z,4.03
2018-12-22T08:48:28.358Z,4.93
2018-12-22T08:51:03.119Z,1.97
2018-12-22T08:53:38.061Z,2.90
2018-12-22T08:56:18.240Z,3.37
2018-12-22T08:58:58.330Z,2.93
2018-12-22T09:01:32.804Z,4.37
2018-12-22T09:04:08.496Z,8.23
2018-12-22T09:06:42.382Z,7.00
2018-12-22T09:09:17.248Z,6.37
2018-12-22T09:11:52.104Z,6.40
2018-12-22T09:14:27.155Z,4.23
2018-12-22T09:17:02.054Z,7.57
2018-12-22T09:19:42.431Z,3.40
2018-12-22T09:22:22.561Z,1.57
2018-12-22T09:24:56.903Z,5.13
2018-12-22T09:27:31.942Z,4.90
2018-12-22T09:30:08.730Z,2.13
2018-12-22T09:32:42.172Z,2.80
2018-12-22T09:35:15.281Z,2.13
2018-12-22T09:37:50.227Z,2.60
2018-12-22T09:40:25.217Z,3.90
2018-12-22T09:43:00.194Z,3.23
2018-12-22T09:45:37.957Z,9.07
2018-12-22T09:48:12.976Z,2.23
2018-12-22T09:50:47.791Z,1.80
2018-12-22T09:53:20.877Z,4.63
2018-12-22T09:55:58.610Z,2.77
2018-12-22T09:58:33.349Z,2.17
2018-12-22T10:01:09.451Z,2.23
2018-12-22T10:03:43.268Z,0.80
2018-12-22T10:06:18.686Z,1.53
2018-12-22T10:08:52.838Z,0.40
2018-12-22T10:11:33.115Z,0.73
2018-12-22T10:14:08.637Z,2.93
2018-12-22T10:16:43.591Z,1.90
2018-12-22T10:19:18.484Z,2.73
2018-12-22T10:21:52.809Z,0.80
2018-12-22T10:24:26.490Z,1.67
2018-12-22T10:27:07.879Z,1.40
2018-12-22T10:29:43.180Z,0.90
2018-12-22T10:32:19.061Z,0.70
2018-12-22T10:34:58.985Z,2.20
2018-12-22T10:37:33.482Z,0.63
2018-12-22T10:40:07.156Z,0.30
2018-12-22T10:42:48.124Z,0.77
2018-12-22T10:45:24.179Z,2.13
2018-12-22T10:47:59.597Z,0.57
2018-12-22T10:50:35.161Z,2.47
2018-12-22T10:53:10.213Z,1.40
2018-12-22T10:55:44.279Z,0.57
2018-12-22T10:58:19.234Z,0.70
2018-12-22T11:00:53.215Z,1.20
2018-12-22T11:03:28.095Z,1.27
2018-12-22T11:06:02.282Z,0.43
2018-12-22T11:08:37.078Z,1.33
2018-12-22T11:11:12.140Z,2.33
2018-12-22T11:13:43.923Z,0.70
2018-12-22T11:16:28.994Z,0.50
2018-12-22T11:19:12.388Z,1.20
2018-12-22T11:24:35.873Z,1.57
2018-12-22T11:27:21.659Z,0.50
2018-12-22T11:29:58.926Z,0.50
2018-12-22T11:32:36.894Z,0.73
2018-12-22T11:35:16.684Z,0.57
2018-12-22T11:37:56.788Z,2.60
2018-12-22T11:40:34.120Z,0.73
2018-12-22T11:43:06.943Z,1.30
2018-12-22T11:45:42.601Z,1.67
2018-12-22T11:49:19.149Z,0.83
2018-12-22T11:51:53.011Z,1.23
2018-12-22T11:54:33.913Z,1.57
2018-12-22T11:57:06.913Z,1.57
2018-12-22T11:59:41.984Z,4.37
2018-12-22T12:02:16.156Z,8.60
2018-12-22T12:04:47.555Z,0.73
2018-12-22T12:07:18.363Z,3.33
2018-12-22T12:09:50.710Z,3.77
2018-12-22T12:12:21.590Z,5.83
2018-12-22T12:14:55.301Z,3.20
2018-12-22T12:17:35.678Z,1.93
2018-12-22T12:20:06.804Z,1.33
2018-12-22T12:22:38.380Z,1.27
2018-12-22T12:25:12.198Z,1.70
2018-12-22T12:27:44.179Z,1.93
2018-12-22T12:30:17.683Z,8.00
2018-12-22T12:32:52.888Z,3.50
2018-12-22T12:35:27.298Z,2.40
2018-12-22T12:38:08.893Z,5.97
2018-12-22T12:40:46.422Z,2.30
2018-12-22T12:43:26.964Z,1.63
2018-12-22T12:46:07.153Z,5.20
2018-12-22T12:48:41.091Z,1.37
2018-12-22T12:51:14.477Z,1.07
2018-12-22T12:53:47.719Z,4.07
2018-12-22T12:56:19.213Z,0.47
2018-12-22T12:58:52.874Z,2.00
2018-12-22T13:01:24.503Z,1.20
2018-12-22T13:04:03.329Z,1.70
2018-12-22T13:06:37.424Z,1.97
2018-12-22T13:09:09.435Z,1.73
2018-12-22T13:11:42.906Z,4.50
2018-12-22T13:14:17.307Z,4.67
2018-12-22T13:16:50.358Z,2.43
2018-12-22T13:19:21.860Z,2.43
2018-12-22T13:21:55.516Z,4.97
2018-12-22T13:24:27.189Z,4.10
2018-12-22T13:27:00.466Z,5.30
2018-12-22T13:29:33.641Z,1.57
2018-12-22T13:32:09.623Z,3.13
2018-12-22T13:34:47.994Z,2.13
2018-12-22T13:37:21.377Z,2.27
2018-12-22T13:40:01.710Z,2.57
2018-12-22T13:42:43.593Z,3.73
2018-12-22T13:45:17.168Z,2.13
2018-12-22T13:47:52.831Z,1.00
2018-12-22T13:50:23.671Z,1.23
2018-12-22T13:52:57.471Z,2.27
2018-12-22T13:55:30.721Z,1.40
2018-12-22T14:00:59.420Z,2.13
2018-12-22T14:03:39.783Z,2.23
2018-12-22T14:06:19.610Z,4.57
2018-12-22T14:08:55.174Z,3.13
2018-12-22T14:11:30.074Z,2.03
2018-12-22T14:14:05.574Z,3.43
2018-12-22T14:16:47.156Z,2.00
2018-12-22T14:19:22.960Z,4.00
2018-12-22T14:21:58.728Z,2.97
2018-12-22T14:24:36.611Z,1.90
2018-12-22T14:27:12.069Z,4.43
2018-12-22T14:29:49.124Z,1.23
2018-12-22T14:32:26.951Z,1.27
2018-12-22T14:35:06.236Z,1.23
2018-12-22T14:37:44.270Z,5.30
2018-12-22T14:43:19.862Z,2.13
2018-12-22T14:45:53.952Z,2.60
2018-12-22T14:48:34.475Z,2.17
2018-12-22T14:51:11.436Z,5.40
2018-12-22T14:53:46.179Z,1.63
2018-12-22T14:56:18.463Z,2.53
2018-12-22T14:58:53.762Z,1.63
2018-12-22T15:01:33.245Z,2.80
2018-12-22T15:04:12.940Z,3.73
2018-12-22T15:06:47.635Z,2.30
2018-12-22T15:09:22.259Z,2.60
2018-12-22T15:11:57.196Z,3.37
2018-12-22T15:14:32.813Z,2.83
2018-12-22T15:17:07.761Z,1.60
2018-12-22T15:19:42.704Z,1.57
2018-12-22T15:22:17.526Z,2.00
2018-12-22T15:24:52.459Z,1.67
2018-12-22T15:27:29.572Z,2.83
2018-12-22T15:30:08.932Z,2.17
2018-12-22T15:32:44.556Z,1.33
2018-12-22T15:35:18.366Z,3.53
2018-12-22T15:37:58.611Z,3.33
2018-12-22T15:40:34.122Z,5.90
2018-12-22T15:43:08.000Z,5.13
2018-12-22T15:45:42.895Z,3.90
2018-12-22T15:48:17.809Z,2.73
2018-12-22T15:50:52.971Z,4.00
2018-12-22T15:53:27.850Z,3.40
2018-12-22T15:56:01.907Z,3.20
2018-12-22T15:58:37.270Z,3.23
2018-12-22T16:01:11.212Z,2.67
2018-12-22T16:03:46.109Z,1.97
2018-12-22T16:06:21.222Z,3.03
2018-12-22T16:08:56.105Z,4.27
2018-12-22T16:11:31.015Z,7.03
2018-12-22T16:14:05.875Z,4.80
2018-12-22T16:16:40.910Z,4.17
2018-12-22T16:19:20.349Z,4.27
2018-12-22T16:21:54.877Z,3.17
2018-12-22T16:24:29.759Z,4.87
2018-12-22T16:27:04.940Z,3.60
2018-12-22T16:29:40.916Z,3.27
2018-12-22T16:32:16.511Z,6.93
2018-12-22T16:35:02.514Z,3.23
2018-12-22T16:37:37.383Z,3.60
2018-12-22T16:40:11.543Z,3.90
2018-12-22T16:42:45.395Z,4.27
2018-12-22T16:45:24.792Z,2.97
2018-12-22T16:48:00.232Z,2.27
2018-12-22T16:50:36.422Z,3.00
2018-12-22T16:53:15.809Z,5.07
2018-12-22T16:55:55.637Z,4.27
2018-12-22T16:58:32.376Z,3.40
2018-12-22T17:01:23.203Z,3.77
2018-12-22T17:03:56.101Z,2.17
2018-12-22T17:06:31.396Z,3.17
2018-12-22T17:09:07.194Z,3.63
2018-12-22T17:11:41.815Z,4.00
2018-12-22T17:14:16.630Z,4.63
2018-12-22T17:16:50.402Z,2.67
2018-12-22T17:19:26.125Z,2.53
2018-12-22T17:22:06.711Z,2.90
2018-12-22T17:24:45.664Z,3.13
2018-12-22T17:27:22.718Z,3.23
2018-12-22T17:29:59.537Z,2.27
2018-12-22T17:32:35.075Z,4.57
2018-12-22T17:35:11.566Z,3.93
2018-12-22T17:37:46.311Z,2.93
2018-12-22T17:40:21.415Z,1.77
2018-12-22T17:42:54.489Z,3.07
2018-12-22T17:45:31.856Z,3.17
2018-12-22T17:48:06.928Z,4.57
2018-12-22T17:50:42.107Z,2.90
2018-12-22T17:53:17.706Z,5.47
2018-12-22T17:55:54.545Z,4.83
2018-12-22T17:58:34.727Z,3.37
2018-12-22T18:01:05.714Z,4.07
2018-12-22T18:03:43.006Z,3.33
2018-12-22T18:06:20.780Z,3.43
2018-12-22T18:08:56.027Z,2.47
2018-12-22T18:11:30.606Z,4.30
2018-12-22T18:14:04.711Z,3.00
2018-12-22T18:16:39.724Z,6.43
2018-12-22T18:19:14.834Z,3.00
2018-12-22T18:21:55.443Z,2.83
2018-12-22T18:24:30.297Z,4.33
2018-12-22T18:27:05.300Z,3.33
2018-12-22T18:29:40.292Z,4.00
2018-12-22T18:32:15.214Z,5.50
2018-12-22T18:34:51.714Z,4.37
2018-12-22T18:37:29.093Z,6.23
2018-12-22T18:40:08.793Z,5.40
2018-12-22T18:42:49.585Z,5.60
2018-12-22T18:45:23.996Z,6.17
2018-12-22T18:47:56.923Z,4.63
2018-12-22T18:50:31.587Z,5.67
2018-12-22T18:53:11.766Z,4.80
2018-12-22T18:55:45.229Z,7.03
2018-12-22T18:58:20.203Z,2.80
2018-12-22T19:00:55.238Z,4.67
2018-12-22T19:03:35.524Z,4.47
2018-12-22T19:06:06.733Z,3.73
2018-12-22T19:08:41.290Z,4.73
2018-12-22T19:11:16.963Z,3.00
2018-12-22T19:13:51.928Z,4.53
2018-12-22T19:16:26.817Z,5.00
2018-12-22T19:19:02.256Z,3.13
2018-12-22T19:21:36.640Z,5.83
2018-12-22T19:24:11.892Z,4.30
2018-12-22T19:26:49.566Z,4.67
2018-12-22T19:29:24.470Z,4.40
2018-12-22T19:31:59.182Z,3.90
2018-12-22T19:34:34.280Z,11.83
2018-12-22T19:37:09.298Z,3.87
2018-12-22T19:39:46.339Z,2.77
2018-12-22T19:42:21.246Z,4.73
2018-12-22T19:45:02.834Z,5.17
2018-12-22T19:47:37.357Z,3.73
2018-12-22T19:50:15.096Z,3.77
2018-12-22T19:52:50.469Z,3.03
2018-12-22T19:55:24.075Z,6.83
2018-12-22T19:57:58.975Z,5.63
2018-12-22T20:00:34.386Z,7.80
2018-12-22T20:03:08.837Z,4.37
2018-12-22T20:05:43.011Z,3.83
2018-12-22T20:08:20.483Z,4.37
2018-12-22T20:10:55.403Z,4.30
2018-12-22T20:13:30.354Z,3.23
2018-12-22T20:16:08.966Z,5.37
2018-12-22T20:18:43.443Z,4.93
2018-12-22T20:21:24.640Z,3.63
2018-12-22T20:23:59.161Z,5.50
2018-12-22T20:26:33.814Z,3.07
2018-12-22T20:29:15.595Z,4.63
2018-12-22T20:31:53.687Z,3.73
2018-12-22T20:34:31.613Z,2.43
2018-12-22T20:37:07.094Z,4.20
2018-12-22T20:39:44.039Z,5.03
2018-12-22T20:42:19.604Z,2.10
2018-12-22T20:44:54.842Z,4.73
2018-12-22T20:47:30.036Z,2.57
2018-12-22T20:50:04.728Z,4.30
2018-12-22T20:52:39.476Z,4.20
2018-12-22T20:55:14.485Z,6.13
2018-12-22T20:57:50.210Z,4.90
2018-12-22T21:00:29.624Z,2.57
2018-12-22T21:03:05.069Z,2.00
2018-12-22T21:05:42.046Z,9.80
2018-12-22T21:08:17.155Z,3.83
2018-12-22T21:10:54.766Z,5.30
2018-12-22T21:13:29.423Z,3.77
2018-12-22T21:16:04.433Z,3.40
2018-12-22T21:18:38.283Z,2.33
2018-12-22T21:21:25.041Z,4.90
2018-12-22T21:24:02.860Z,3.00
2018-12-22T21:26:40.835Z,8.53
2018-12-22T21:29:15.504Z,4.23
2018-12-22T21:31:50.303Z,2.87
2018-12-22T21:34:28.436Z,3.83
2018-12-22T21:37:03.296Z,4.33
2018-12-22T21:39:38.161Z,3.43
2018-12-22T21:42:18.575Z,2.50
2018-12-22T21:44:53.905Z,4.17
2018-12-22T21:47:27.770Z,7.00
2018-12-22T21:50:08.034Z,8.57
2018-12-22T21:52:50.081Z,5.73
2018-12-22T21:55:25.306Z,4.93
2018-12-22T21:57:58.417Z,6.00
2018-12-22T22:00:33.166Z,6.37
2018-12-22T22:03:10.503Z,5.80
2018-12-22T22:05:47.498Z,3.83
2018-12-22T22:08:24.201Z,3.43
2018-12-22T22:11:01.575Z,3.80
2018-12-22T22:13:36.287Z,4.53
2018-12-22T22:16:11.387Z,3.90
2018-12-22T22:18:48.259Z,4.33
2018-12-22T22:21:27.650Z,5.33
2018-12-22T22:24:02.878Z,5.43
2018-12-22T22:26:37.680Z,4.90
2018-12-22T22:29:12.647Z,3.87
2018-12-22T22:31:47.634Z,4.30
2018-12-22T22:34:22.649Z,5.97
2018-12-22T22:36:55.653Z,4.90
2018-12-22T22:39:35.184Z,3.50
2018-12-22T22:42:10.329Z,4.63
2018-12-22T22:44:43.515Z,4.63
2018-12-22T22:47:18.491Z,6.07
2018-12-22T22:49:53.589Z,3.50
2018-12-22T22:52:30.871Z,2.80
2018-12-22T22:55:05.622Z,1.40
2018-12-22T22:57:40.817Z,3.17
2018-12-22T23:00:26.388Z,1.20
2018-12-22T23:03:04.170Z,3.20
2018-12-22T23:05:37.558Z,3.47
2018-12-22T23:08:12.264Z,2.23
2018-12-22T23:10:45.149Z,4.70
2018-12-22T23:13:18.082Z,1.87
2018-12-22T23:15:50.425Z,2.70
2018-12-22T23:18:23.750Z,4.87
2018-12-22T23:20:55.225Z,4.67
2018-12-22T23:23:28.699Z,2.13
2018-12-22T23:26:01.775Z,3.53
2018-12-22T23:28:34.822Z,4.83
2018-12-22T23:31:09.813Z,2.27
2018-12-22T23:33:45.185Z,3.13
2018-12-22T23:36:16.517Z,4.57
2018-12-22T23:38:49.937Z,4.37
2018-12-22T23:41:23.851Z,2.60
2018-12-22T23:43:56.914Z,3.07
2018-12-22T23:46:30.050Z,3.47
2018-12-22T23:49:03.800Z,2.33
2018-12-22T23:51:36.793Z,4.20
2018-12-22T23:54:10.641Z,1.30
2018-12-22T23:56:43.626Z,2.30
2018-12-22T23:59:19.385Z,3.97
